^^

Nearby METAR Reports

 

EGNV - Tees-Side, United Kingdom
Distance from station: SW 7mi, 11km
Updated: 02/12/2022 21:50
NOT Current
Few Clouds
Few Clouds
 Wind from ENE
Wind: ENE 6 mph , 9 km/h
Temperature: 4°C
Wind Chill: 2°C
Dew Point: 3°C
Humidity: 93%
Barometer: 1030 hPa
Clouds: Few Clouds
Visibility: 6 miles , 10 km
Cloud details: Few Clouds 1463 m
2022/12/02 21:50 EGNV 022150Z 06005KT 9999 FEW048 04/03 Q1030
EGXE - Leeming Raf, United Kingdom
Distance from station: SSW 23mi, 37km
Updated: 02/12/2022 23:50
Mist, Mostly cloudy
Mist, Mostly cloudy
 Wind from N
Wind: N 5 mph , 7 km/h
Temperature: 2°C
Wind Chill: 0°C
Dew Point: 1°C
Humidity: 93%
Barometer: 1029 hPa
Summary: Mist
Clouds: Mostly cloudy
Visibility: 6 miles , 10 km
Cloud details: Mostly cloudy 1463 m
2022/12/02 23:50 EGXE 022350Z AUTO 01004KT 9999 BR BKN048/// 02/01 Q1029
 
EGXZ - Topcliffe Raf, United Kingdom
Distance from station: S 27mi, 43km
Updated: 02/12/2022 23:50
Mostly cloudy
Mostly cloudy
 Wind from NNE
Wind: NNE 6 mph , 9 km/h
Temperature: 2°C
Wind Chill: -1°C
Dew Point: 1°C
Humidity: 93%
Barometer: 1029 hPa
Clouds: Mostly cloudy
Visibility: 6 miles , 10 km
Cloud details: Mostly cloudy 732 m
2022/12/02 23:50 EGXZ 022350Z AUTO 02005KT 9999 BKN024/// 02/01 Q1029
EGNT - Newcastle, United Kingdom
Distance from station: NNW 34mi, 54km
Updated: 02/12/2022 23:50
Mostly cloudy
Mostly cloudy
 Wind from ENE
Wind: ENE 6 mph , 9 km/h
Temperature: 5°C
Wind Chill: 3°C
Dew Point: 4°C
Humidity: 93%
Barometer: 1030 hPa
Clouds: Mostly cloudy
Visibility: 6 miles , 10 km
Cloud details: Few Clouds 640 m
Mostly cloudy 1311 m
2022/12/02 23:50 EGNT 022350Z 07005KT 9999 FEW021 BKN043 05/04 Q1030
 
EGXU - Linton-On-Ouse R, United Kingdom
Distance from station: S 37mi, 60km
Updated: 04/07/2022 11:50
NOT Current
Overcast
Overcast
 Wind from W
Wind: W 14 mph , 22 km/h
Temperature: 17°C
Dew Point: 9°C
Humidity: 59%
Barometer: 1020 hPa
Clouds: Overcast
Visibility: 6 miles , 10 km
Cloud details: Overcast 975 m
2022/07/04 10:50 EGXU 041050Z 28012KT 9999 OVC032 17/09 Q1020 RMK BLU
EGNM - Leeds And Bradfo, United Kingdom
Distance from station: SSW 52mi, 83km
Updated: 02/12/2022 22:50
NOT Current
Few Clouds
Few Clouds
 Wind from NE
Wind: NE 6 mph , 9 km/h
Temperature: 4°C
Wind Chill: 2°C
Dew Point: 2°C
Humidity: 87%
Barometer: 1028 hPa
Clouds: Few Clouds
Visibility: 6 miles , 10 km
Cloud details: Few Clouds 1219 m
2022/12/02 22:50 EGNM 022250Z 05005KT 010V070 9999 FEW040 04/02 Q1028
 
EGOM - Spadeadam, United Kingdom
Distance from station: WNW 58mi, 94km
Updated: 02/12/2022 23:50
Overcast
Overcast
 Wind from E
Wind: E 6 mph , 9 km/h
Temperature: 4°C
Wind Chill: 2°C
Dew Point: 4°C
Humidity: 100%
Barometer: 1029 hPa
Clouds: Overcast
Visibility: 6 miles , 10 km
Cloud details: Overcast 1036 m
2022/12/02 23:50 EGOM 022350Z AUTO 08005KT 9999 OVC034/// 04/04 Q1029
EGCN - Doncaster Sheffi, United Kingdom
Distance from station: S 77mi, 124km
Updated: 30/11/2022 17:50
NOT Current
Haze, Overcast
Haze, Overcast
 Wind from ESE
Wind: ESE 3 mph , 6 km/h
Temperature: 6°C
Dew Point: 5°C
Humidity: 93%
Barometer: 1028 hPa
Summary: Haze
Clouds: Overcast
Visibility: 3 miles , 5 km
Cloud details: Few Clouds 183 m
Overcast 610 m
2022/11/30 17:50 EGCN 301750Z 12003KT 5000 HZ FEW006 OVC020 06/05 Q1028
 
EGNJ - Humberside, United Kingdom
Distance from station: SSE 80mi, 129km
Updated: 02/12/2022 23:50
Mostly cloudy
Mostly cloudy
 Wind from ENE
Wind: ENE 7 mph , 11 km/h
Temperature: 7°C
Wind Chill: 5°C
Dew Point: 5°C
Humidity: 87%
Barometer: 1028 hPa
Clouds: Mostly cloudy
Visibility: 6 miles , 10 km
Cloud details: Few Clouds 792 m
Partly cloudy 975 m
Mostly cloudy 1189 m
2022/12/02 23:50 EGNJ 022350Z AUTO 06006KT 9999 FEW026/// SCT032/// BKN039/// 07/05 Q1028
EGNH - Blackpool Airpor, United Kingdom
Distance from station: SW 90mi, 145km
Updated: 02/12/2022 20:50
NOT Current
Clear
Clear
 Wind from varies
Wind: varies 8 mph , 13 km/h
Temperature: 7°C
Wind Chill: 5°C
Dew Point: 5°C
Humidity: 87%
Barometer: 1029 hPa
Summary: Clear
Visibility: greater than 7 miles , 10 km
2022/12/02 20:50 EGNH 022050Z VRB07KT CAVOK 07/05 Q1029
 
EGXP - Scampton Raf, United Kingdom
Distance from station: SSE 94mi, 151km
Updated: 01/11/2022 10:50
NOT Current

 Wind from SW
Wind: SW 22 mph , 35 km/h
Temperature: 14°C
Dew Point: 10°C
Humidity: 77%
Barometer: 1001 hPa
2022/11/01 10:50 EGXP 011050Z AUTO 22019KT //// // ///////// 14/10 Q1001
EGCC - Manchester Intl, United Kingdom
Distance from station: SSW 94mi, 152km
Updated: 02/12/2022 23:50
Clear
Clear
 Wind from N
Wind: N 6 mph , 9 km/h
Temperature: 3°C
Wind Chill: 0°C
Dew Point: 1°C
Humidity: 87%
Barometer: 1028 hPa
Clouds: Clear
Visibility: 6 miles , 10 km
2022/12/02 23:50 EGCC 022350Z AUTO 35005KT 9999 NCD 03/01 Q1028 NOSIG